Time;durP1;ratioP1;P1;durP2;ratioP2;P2;SDS_P1;SDS_P2;PMS_P1;PMS_P2;Temp;Humidity;BMP_temperature;BMP_pressure;BME280_temperature;BME280_humidity;BME280_pressure;Samples;Min_cycle;Max_cycle;Signal;HPM_P1;HPM_P2
2022/05/13 00:01:50;;;;;;;0.90;0.40;;;;;;;22.02;44.97;101712.41;5070002;28;20040;-49
2022/05/13 00:04:16;;;;;;;1.20;0.52;;;;;;;22.01;44.96;101708.84;5097205;28;20032;-49
2022/05/13 00:06:41;;;;;;;0.93;0.40;;;;;;;22.00;44.88;101706.31;5098048;28;20040;-47
2022/05/13 00:09:06;;;;;;;0.90;0.38;;;;;;;22.01;44.64;101713.44;5085042;28;20037;-48
2022/05/13 00:11:32;;;;;;;0.30;0.30;;;;;;;22.00;44.79;101701.72;5085185;28;20209;-47
2022/05/13 00:13:57;;;;;;;1.35;0.50;;;;;;;22.00;44.93;101709.84;5085306;28;20029;-49
2022/05/13 00:16:22;;;;;;;0.30;0.30;;;;;;;21.99;44.57;101705.47;5084676;28;20024;-48
2022/05/13 00:18:48;;;;;;;0.73;0.40;;;;;;;21.98;44.60;101708.34;5085282;28;20013;-47
2022/05/13 00:21:13;;;;;;;0.80;0.35;;;;;;;;;;5085416;28;20583;-50
2022/05/13 00:23:39;;;;;;;0.70;0.40;;;;;;;;;;5083905;28;20089;-50
2022/05/13 00:26:04;;;;;;;0.63;0.40;;;;;;;21.94;44.80;101708.69;5085173;28;20031;-48
2022/05/13 00:28:29;;;;;;;0.88;0.40;;;;;;;21.95;44.50;101710.38;5085019;28;20092;-50
2022/05/13 00:30:55;;;;;;;0.90;0.35;;;;;;;21.93;44.43;101706.16;5066615;28;20048;-48
2022/05/13 00:33:21;;;;;;;0.82;0.40;;;;;;;21.95;44.72;101709.53;5085037;28;20066;-50
2022/05/13 00:35:47;;;;;;;0.40;0.32;;;;;;;21.95;44.43;101709.53;5084999;28;20416;-47
2022/05/13 00:38:12;;;;;;;1.25;0.50;;;;;;;21.93;44.49;101698.03;5083660;28;20041;-49
2022/05/13 00:40:38;;;;;;;0.47;0.32;;;;;;;21.94;44.54;101699.72;5084875;28;20032;-50
2022/05/13 00:43:07;;;;;;;0.52;0.40;;;;;;;21.94;44.22;101699.72;5083177;28;20057;-47
2022/05/13 00:45:33;;;;;;;0.93;0.55;;;;;;;21.92;44.48;101694.47;5084331;28;20038;-47
2022/05/13 00:47:59;;;;;;;0.73;0.30;;;;;;;21.92;44.29;101696.34;5083227;28;20080;-46
2022/05/13 00:50:24;;;;;;;0.73;0.30;;;;;;;21.92;44.39;101690.94;5084572;28;20109;-48
2022/05/13 00:52:51;;;;;;;0.52;0.30;;;;;;;21.88;44.27;101681.44;5083093;28;20028;-46
2022/05/13 00:55:23;;;;;;;0.40;0.40;;;;;;;21.92;44.07;101682.81;5084227;28;20390;-51
2022/05/13 00:57:49;;;;;;;0.50;0.30;;;;;;;21.90;44.01;101688.38;5083414;28;20023;-49
2022/05/13 01:00:15;;;;;;;0.75;0.40;;;;;;;21.90;44.46;101688.38;5082641;28;20058;-48
2022/05/13 01:02:43;;;;;;;0.98;0.40;;;;;;;21.87;44.14;101682.44;5086794;28;20493;-47
2022/05/13 01:05:09;;;;;;;0.55;0.30;;;;;;;21.86;44.05;101670.78;5104766;28;20093;-49
2022/05/13 01:07:34;;;;;;;0.38;0.30;;;;;;;21.89;44.03;101677.72;5089036;28;20029;-50
2022/05/13 01:10:03;;;;;;;0.70;0.45;;;;;;;21.87;44.31;101674.31;5082765;28;20469;-49
2022/05/13 01:12:31;;;;;;;;;;;;;;;21.83;44.38;101681.09;5083194;28;20038;-50
2022/05/13 01:15:17;;;;;;;0.93;0.47;;;;;;;21.84;44.21;101680.09;5082387;28;19908;-46
2022/05/13 01:20:32;;;;;;;0.50;0.40;;;;;;;21.84;44.18;101667.41;5084478;28;20120;-52
2022/05/13 01:23:03;;;;;;;0.43;0.30;;;;;;;21.82;44.06;101672.13;5083733;28;20032;-48
2022/05/13 01:25:33;;;;;;;0.52;0.30;;;;;;;21.83;43.92;101678.38;5084064;28;20020;-48
2022/05/13 01:28:08;;;;;;;0.93;0.40;;;;;;;21.84;44.04;101671.97;5083855;28;20032;-46
2022/05/13 01:30:33;;;;;;;1.27;0.95;;;;;;;21.82;43.79;101671.28;5083672;28;20050;-50
2022/05/13 01:32:58;;;;;;;0.63;0.40;;;;;;;21.81;43.76;101675.84;5083919;28;20467;-48
2022/05/13 01:35:24;;;;;;;1.15;0.47;;;;;;;21.80;43.68;101665.22;5083858;28;20098;-50
2022/05/13 01:37:50;;;;;;;0.85;0.30;;;;;;;21.80;43.87;101678.75;5082635;28;20056;-49
2022/05/13 01:40:15;;;;;;;0.40;0.30;;;;;;;21.80;43.93;101674.16;5083833;28;20028;-49
2022/05/13 01:42:40;;;;;;;0.50;0.40;;;;;;;21.80;43.64;101676.03;5083403;28;20036;-49
2022/05/13 01:45:09;;;;;;;0.40;0.28;;;;;;;21.81;43.95;101669.59;5067479;28;20044;-50
2022/05/13 01:47:34;;;;;;;1.27;0.57;;;;;;;21.79;43.83;101661.66;5063697;28;20078;-48
2022/05/13 01:50:00;;;;;;;0.77;0.50;;;;;;;21.78;43.83;101659.94;5063619;28;20041;-49
2022/05/13 01:52:25;;;;;;;1.05;0.50;;;;;;;21.80;43.86;101670.63;5063596;28;20544;-48
2022/05/13 01:54:50;;;;;;;0.40;0.38;;;;;;;21.78;43.77;101662.66;5063163;28;20040;-50
2022/05/13 01:57:15;;;;;;;0.32;0.20;;;;;;;21.77;43.78;101668.25;5063627;28;20624;-46
2022/05/13 01:59:41;;;;;;;0.20;0.20;;;;;;;21.76;43.49;101667.41;5063160;28;20029;-46
2022/05/13 02:02:06;;;;;;;0.60;0.30;;;;;;;21.76;43.52;101672.81;5062380;28;20033;-49
2022/05/13 02:04:31;;;;;;;0.43;0.30;;;;;;;21.75;43.65;101665.72;5098510;28;20032;-46
2022/05/13 02:06:56;;;;;;;0.30;0.30;;;;;;;21.75;43.40;101663.00;5094595;28;20036;-48
2022/05/13 02:09:22;;;;;;;0.88;0.35;;;;;;;21.75;43.72;101665.72;5082976;28;20032;-53
2022/05/13 02:11:47;;;;;;;0.40;0.38;;;;;;;21.73;43.42;101667.72;5083423;28;20038;-46
2022/05/13 02:14:17;;;;;;;0.20;0.20;;;;;;;21.74;43.58;101669.41;5083424;28;20468;-51
2022/05/13 02:16:42;;;;;;;0.55;0.30;;;;;;;21.72;43.50;101657.94;5083094;28;20395;-48
2022/05/13 02:19:07;;;;;;;0.75;0.35;;;;;;;21.73;43.31;101656.06;5083442;28;20044;-46
2022/05/13 02:21:33;;;;;;;1.13;0.38;;;;;;;21.71;43.41;101662.50;5083626;28;20036;-51
2022/05/13 02:23:58;;;;;;;0.32;0.20;;;;;;;21.73;43.15;101664.19;5082917;28;20029;-46
2022/05/13 02:26:23;;;;;;;0.40;0.30;;;;;;;21.71;43.18;101662.50;5083309;28;20099;-47
2022/05/13 02:28:49;;;;;;;0.60;0.38;;;;;;;21.69;43.50;101667.22;5076587;28;20051;-47
2022/05/13 02:31:14;;;;;;;0.32;0.30;;;;;;;21.69;43.40;101667.22;5082818;28;20063;-50
2022/05/13 02:33:41;;;;;;;0.82;0.50;;;;;;;21.69;43.48;101666.38;5083314;28;20111;-48
2022/05/13 02:36:07;;;;;;;0.93;0.50;;;;;;;21.69;42.97;101669.09;5083251;28;20024;-52
2022/05/13 02:38:33;;;;;;;0.63;0.30;;;;;;;21.69;43.28;101671.78;5082903;28;20035;-51
2022/05/13 02:41:14;;;;;;;0.40;0.30;;;;;;;21.68;43.23;101664.69;5082027;28;20034;-47
2022/05/13 02:43:45;;;;;;;0.25;0.25;;;;;;;21.67;43.00;101663.84;5079085;28;20029;-48
2022/05/13 02:46:11;;;;;;;0.28;0.25;;;;;;;21.66;43.02;101655.88;5062747;28;20063;-51
2022/05/13 02:48:36;;;;;;;0.40;0.40;;;;;;;21.65;43.03;101656.91;5062831;28;20047;-50
2022/05/13 02:51:02;;;;;;;0.30;0.30;;;;;;;21.65;42.96;101656.91;5063429;28;20115;-49
2022/05/13 02:53:27;;;;;;;0.52;0.30;;;;;;;21.63;43.13;101654.38;5064990;28;20047;-51
2022/05/13 02:55:52;;;;;;;0.95;0.40;;;;;;;21.63;43.00;101654.38;5083139;28;20112;-46
2022/05/13 02:58:17;;;;;;;0.43;0.40;;;;;;;21.64;42.83;101649.81;5082976;28;20029;-47
2022/05/13 03:00:44;;;;;;;0.35;0.20;;;;;;;21.62;42.77;101658.09;5082559;28;20024;-48
2022/05/13 03:03:10;;;;;;;0.75;0.50;;;;;;;21.62;43.01;101657.22;5084740;28;20043;-47
2022/05/13 03:05:35;;;;;;;0.63;0.40;;;;;;;21.62;42.64;101638.28;5103384;28;20020;-52
2022/05/13 03:08:01;;;;;;;1.27;0.38;;;;;;;21.61;42.66;101629.31;5085259;28;20024;-45
2022/05/13 03:10:31;;;;;;;0.57;0.57;;;;;;;21.62;42.65;101630.16;5083020;28;20038;-47
2022/05/13 03:12:57;;;;;;;0.30;0.30;;;;;;;21.60;42.75;101632.22;5085310;28;20461;-48
2022/05/13 03:15:24;;;;;;;0.57;0.30;;;;;;;21.60;42.64;101632.22;5085947;28;20043;-48
2022/05/13 03:17:49;;;;;;;0.35;0.35;;;;;;;21.60;42.72;101619.53;5086434;28;20104;-46
2022/05/13 03:20:17;;;;;;;0.40;0.25;;;;;;;21.58;42.62;101621.56;5086731;28;20028;-50
2022/05/13 03:22:43;;;;;;;0.70;0.40;;;;;;;21.58;42.62;101616.16;5086639;28;20028;-48
2022/05/13 03:25:08;;;;;;;0.22;0.20;;;;;;;21.58;42.83;101626.97;5084731;28;20078;-50
2022/05/13 03:27:34;;;;;;;0.77;0.40;;;;;;;21.58;42.66;101628.81;5086252;28;20249;-51
2022/05/13 03:29:59;;;;;;;0.30;0.25;;;;;;;21.56;42.59;101634.41;5085934;28;20096;-45
2022/05/13 03:32:24;;;;;;;0.50;0.35;;;;;;;21.58;42.65;101631.53;5086294;28;20032;-48
2022/05/13 03:34:49;;;;;;;2.22;0.50;;;;;;;21.56;42.74;101636.28;5085091;28;20039;-52
2022/05/13 03:37:14;;;;;;;0.20;0.20;;;;;;;21.56;42.74;101639.81;5085701;28;20043;-49
2022/05/13 03:39:40;;;;;;;0.45;0.30;;;;;;;21.55;42.76;101648.97;5085500;28;20111;-49
2022/05/13 03:42:05;;;;;;;0.43;0.30;;;;;;;21.55;42.77;101648.13;5085997;28;20523;-49
2022/05/13 03:44:31;;;;;;;0.25;0.25;;;;;;;21.54;42.33;101639.16;5085496;28;20115;-47
2022/05/13 03:46:56;;;;;;;0.50;0.30;;;;;;;21.55;42.83;101643.53;5085675;28;20024;-47
2022/05/13 03:49:21;;;;;;;0.30;0.30;;;;;;;21.54;42.76;101643.72;5085669;28;20072;-49
2022/05/13 03:51:47;;;;;;;0.98;0.40;;;;;;;21.53;42.78;101642.84;5086167;28;20032;-48
2022/05/13 03:54:12;;;;;;;0.65;0.38;;;;;;;21.52;42.62;101646.56;5085659;28;20036;-51
2022/05/13 03:56:37;;;;;;;0.85;0.30;;;;;;;21.52;42.53;101641.16;5085962;28;20028;-47
2022/05/13 03:59:03;;;;;;;1.08;0.40;;;;;;;21.52;42.52;101648.44;5085839;28;20046;-49
2022/05/13 04:01:28;;;;;;;0.28;0.28;;;;;;;21.48;42.77;101645.22;5085222;28;20028;-47
2022/05/13 04:03:53;;;;;;;0.63;0.30;;;;;;;21.51;42.63;101654.88;5098280;28;20035;-49
2022/05/13 04:09:05;;;;;;;0.82;0.40;;;;;;;21.50;42.21;101650.50;5084138;28;20035;-48
2022/05/13 04:11:37;;;;;;;1.35;0.60;;;;;;;21.50;42.53;101653.19;5081937;28;20473;-45
2022/05/13 04:16:50;;;;;;;1.75;0.40;;;;;;;21.50;42.37;101659.44;5075545;28;20093;-46
2022/05/13 04:19:15;;;;;;;0.50;0.30;;;;;;;21.50;42.23;101664.84;5079048;28;20021;-49
2022/05/13 04:21:41;;;;;;;0.80;0.38;;;;;;;21.50;42.65;101670.28;5075102;28;20060;-50
2022/05/13 04:24:10;;;;;;;0.63;0.40;;;;;;;21.50;42.52;101667.56;5078808;28;20029;-47
2022/05/13 04:26:35;;;;;;;0.55;0.30;;;;;;;21.50;42.40;101661.31;5077230;28;20029;-48
2022/05/13 04:29:01;;;;;;;0.90;0.32;;;;;;;21.49;42.43;101659.59;5076182;28;20033;-48
2022/05/13 04:31:32;;;;;;;0.63;0.30;;;;;;;21.50;42.38;101662.16;5074729;28;20021;-47
2022/05/13 04:33:58;;;;;;;0.57;0.40;;;;;;;21.50;42.33;101672.97;5079409;28;20024;-47
2022/05/13 04:36:24;;;;;;;0.70;0.40;;;;;;;21.49;42.44;101663.13;5078943;28;20016;-49
2022/05/13 04:38:50;;;;;;;0.57;0.40;;;;;;;21.48;42.65;101657.91;5066959;28;20035;-46
2022/05/13 04:44:01;;;;;;;0.63;0.50;;;;;;;21.49;42.71;101681.22;5071934;28;20031;-51
2022/05/13 04:46:26;;;;;;;0.50;0.30;;;;;;;21.49;42.76;101675.81;5080215;28;20096;-48
2022/05/13 04:48:53;;;;;;;0.85;0.30;;;;;;;21.49;42.85;101675.81;5079527;28;20041;-45
2022/05/13 04:51:19;;;;;;;0.40;0.38;;;;;;;21.46;42.74;101675.16;5076343;28;20017;-46
2022/05/13 04:53:46;;;;;;;0.70;0.40;;;;;;;21.49;42.68;101681.22;5075660;28;20054;-47
2022/05/13 04:56:11;;;;;;;0.30;0.30;;;;;;;21.49;42.99;101683.94;5084023;28;20016;-45
2022/05/13 04:58:38;;;;;;;0.30;0.30;;;;;;;21.47;42.46;101684.13;5078311;28;20032;-47
2022/05/13 05:01:05;;;;;;;0.52;0.30;;;;;;;21.50;42.75;101686.50;5075260;28;20021;-45
2022/05/13 05:03:30;;;;;;;0.85;0.40;;;;;;;21.50;43.17;101691.06;5080069;28;20024;-48
2022/05/13 05:05:57;;;;;;;0.77;0.38;;;;;;;21.50;43.19;101691.06;5075781;28;20018;-50
2022/05/13 05:08:22;;;;;;;0.43;0.30;;;;;;;21.49;42.98;101697.47;5075086;28;20084;-44
2022/05/13 05:10:47;;;;;;;0.70;0.45;;;;;;;21.49;42.93;101701.00;5072884;28;20074;-52
2022/05/13 05:13:20;;;;;;;0.55;0.35;;;;;;;21.50;43.30;101696.47;5069181;28;20035;-49
2022/05/13 05:15:45;;;;;;;0.40;0.30;;;;;;;21.49;42.97;101700.19;5072206;28;20021;-49
2022/05/13 05:18:11;;;;;;;0.60;0.38;;;;;;;21.49;43.40;101700.19;5075447;28;20031;-48
2022/05/13 05:20:36;;;;;;;0.50;0.30;;;;;;;21.50;43.44;101710.84;5075977;28;20033;-50
2022/05/13 05:23:02;;;;;;;0.70;0.40;;;;;;;21.49;43.05;101706.44;5076609;28;20085;-49
2022/05/13 05:25:29;;;;;;;0.85;0.32;;;;;;;21.50;43.30;101712.72;5071734;28;20024;-46
2022/05/13 05:27:55;;;;;;;1.00;0.50;;;;;;;21.50;43.35;101715.41;5074158;28;20024;-49
2022/05/13 05:30:21;;;;;;;0.75;0.40;;;;;;;21.49;43.46;101714.53;5071496;28;20031;-49
2022/05/13 05:32:46;;;;;;;0.63;0.35;;;;;;;21.49;43.58;101722.66;5072642;28;20052;-47
2022/05/13 05:35:15;;;;;;;1.33;0.50;;;;;;;21.50;43.48;101718.97;5078137;28;20397;-47
2022/05/13 05:37:41;;;;;;;1.13;0.80;;;;;;;21.49;43.78;101717.25;5073664;28;20021;-49
2022/05/13 05:40:09;;;;;;;0.98;0.45;;;;;;;21.49;43.42;101727.22;5078032;28;20047;-47
2022/05/13 05:42:35;;;;;;;0.43;0.37;;;;;;;21.49;43.58;101729.94;5067812;28;20041;-51
2022/05/13 05:45:00;;;;;;;0.82;0.40;;;;;;;21.47;43.80;101730.13;5072343;28;20059;-49
2022/05/13 05:47:25;;;;;;;0.40;0.30;;;;;;;21.48;43.93;101731.81;5071039;28;20075;-51
2022/05/13 05:49:50;;;;;;;0.63;0.43;;;;;;;21.48;43.64;101729.09;5076964;28;20060;-50
2022/05/13 05:52:16;;;;;;;0.85;0.50;;;;;;;21.48;44.10;101734.50;5081906;28;20031;-45
2022/05/13 05:57:26;;;;;;;0.50;0.40;;;;;;;21.49;43.70;101729.94;5075010;28;20051;-46
2022/05/13 05:59:52;;;;;;;0.98;0.50;;;;;;;21.49;43.65;101744.31;5071973;28;20103;-44
2022/05/13 06:02:17;;;;;;;1.25;0.50;;;;;;;21.50;44.15;101742.47;5076980;28;20017;-45
2022/05/13 06:04:43;;;;;;;1.08;0.40;;;;;;;21.49;43.83;101743.47;5078331;28;20050;-48
2022/05/13 06:07:14;;;;;;;1.27;0.40;;;;;;;21.51;43.89;101752.28;5074976;28;20084;-45
2022/05/13 06:09:40;;;;;;;0.82;0.50;;;;;;;21.50;44.01;101747.88;5075030;28;20096;-46
2022/05/13 06:12:07;;;;;;;0.80;0.40;;;;;;;21.49;43.85;101752.44;5072617;28;20021;-46
2022/05/13 06:14:32;;;;;;;0.98;0.50;;;;;;;21.50;44.10;101756.84;5079388;28;20087;-43
2022/05/13 06:16:57;;;;;;;0.77;0.30;;;;;;;21.49;43.65;101755.13;5077702;28;20036;-46
2022/05/13 06:19:23;;;;;;;0.57;0.38;;;;;;;21.49;43.51;101757.84;5083434;28;20029;-44
2022/05/13 06:21:48;;;;;;;0.93;0.57;;;;;;;21.46;43.73;101750.91;5083643;28;20028;-50
2022/05/13 06:24:13;;;;;;;0.70;0.40;;;;;;;21.49;43.47;101757.84;5082693;28;20024;-47
2022/05/13 06:26:40;;;;;;;0.52;0.52;;;;;;;21.51;43.64;101760.41;5082811;28;20025;-50
2022/05/13 06:29:06;;;;;;;0.63;0.30;;;;;;;21.50;43.71;101764.97;5077293;28;20020;-48
2022/05/13 06:31:31;;;;;;;0.40;0.32;;;;;;;21.49;43.18;101762.41;5077396;28;20059;-46
2022/05/13 06:33:57;;;;;;;0.63;0.40;;;;;;;21.51;43.73;101760.41;5079585;28;20020;-45
2022/05/13 06:36:22;;;;;;;0.43;0.30;;;;;;;21.50;43.47;101764.13;5082810;28;20035;-48
2022/05/13 06:38:47;;;;;;;0.50;0.40;;;;;;;21.47;43.34;101751.75;5079500;28;20017;-46
2022/05/13 06:41:12;;;;;;;0.57;0.50;;;;;;;21.50;43.22;101764.13;5077551;28;20368;-44
2022/05/13 06:43:38;;;;;;;0.57;0.50;;;;;;;21.50;43.13;101764.97;5075083;28;20016;-46
2022/05/13 06:46:03;;;;;;;0.50;0.40;;;;;;;21.49;44.07;101768.66;5082198;28;20033;-47
2022/05/13 06:48:28;;;;;;;0.77;0.40;;;;;;;21.44;43.24;101763.75;5085854;28;20032;-44
2022/05/13 06:50:53;;;;;;;0.65;0.43;;;;;;;21.50;43.27;101773.09;5087260;28;20055;-46
2022/05/13 06:53:21;;;;;;;1.13;0.40;;;;;;;21.52;43.06;101783.72;5086414;28;20028;-46
2022/05/13 06:55:46;;;;;;;0.85;0.40;;;;;;;21.52;43.24;101778.31;5085789;28;20039;-44
2022/05/13 06:58:13;;;;;;;1.60;0.50;;;;;;;21.51;43.41;101774.78;5086382;28;20024;-46
2022/05/13 07:00:38;;;;;;;1.25;0.40;;;;;;;21.51;43.42;101776.63;5085836;28;20035;-45
2022/05/13 07:03:04;;;;;;;1.05;0.40;;;;;;;21.51;43.09;101777.47;5092621;28;20384;-45
2022/05/13 07:05:29;;;;;;;1.00;0.40;;;;;;;21.52;43.27;101778.31;5106996;28;20343;-44
2022/05/13 07:07:55;;;;;;;1.10;0.65;;;;;;;21.51;43.14;101777.47;5106980;28;20050;-45
2022/05/13 07:10:20;;;;;;;1.10;0.50;;;;;;;21.52;43.31;101786.44;5106627;28;20032;-45
2022/05/13 07:12:45;;;;;;;0.50;0.50;;;;;;;21.51;42.97;101779.34;5106660;28;20103;-46
2022/05/13 07:15:13;;;;;;;0.32;0.30;;;;;;;21.53;42.95;101782.72;5106276;28;20032;-45
2022/05/13 07:17:38;;;;;;;0.52;0.32;;;;;;;21.52;43.18;101781.03;5106800;28;20024;-44
2022/05/13 07:20:04;;;;;;;0.30;0.30;;;;;;;21.50;43.03;101780.34;5106747;28;20058;-45
2022/05/13 07:22:30;;;;;;;1.08;0.40;;;;;;;21.50;43.41;101778.50;5106775;28;20089;-42
2022/05/13 07:24:55;;;;;;;1.15;0.60;;;;;;;21.53;43.02;101780.00;5097893;28;20461;-48
2022/05/13 07:27:20;;;;;;;1.67;0.57;;;;;;;21.53;43.29;101785.41;5086225;28;20059;-44
2022/05/13 07:29:45;;;;;;;0.40;0.30;;;;;;;21.52;43.07;101790.00;5086069;28;20059;-46
2022/05/13 07:32:11;;;;;;;1.02;0.50;;;;;;;21.52;43.28;101786.44;5085761;28;20031;-45
2022/05/13 07:34:36;;;;;;;0.50;0.40;;;;;;;21.53;43.25;101796.25;5085973;28;20092;-48
2022/05/13 07:37:01;;;;;;;1.15;0.68;;;;;;;21.54;42.94;101796.09;5086223;28;20044;-47
2022/05/13 07:42:11;;;;;;;1.10;0.40;;;;;;;21.53;42.99;101788.97;5086132;28;20439;-46
2022/05/13 07:44:37;;;;;;;0.38;0.38;;;;;;;21.53;42.99;101799.78;5085677;28;20032;-45
2022/05/13 07:47:03;;;;;;;1.08;0.40;;;;;;;21.53;43.14;101794.38;5085763;28;20052;-49
2022/05/13 07:49:29;;;;;;;0.65;0.57;;;;;;;21.53;43.19;101813.31;5085500;28;20041;-47
2022/05/13 07:51:54;;;;;;;1.23;0.40;;;;;;;21.52;43.01;101810.78;5086076;28;20028;-44
2022/05/13 07:54:19;;;;;;;0.68;0.47;;;;;;;21.42;43.25;101789.28;5084859;28;20100;-44
2022/05/13 07:56:44;;;;;;;0.98;0.38;;;;;;;21.51;42.85;101811.81;5085589;28;20056;-46
2022/05/13 07:59:10;;;;;;;0.50;0.30;;;;;;;21.52;42.76;101806.22;5084549;28;20749;-44
2022/05/13 08:01:35;;;;;;;1.55;0.70;;;;;;;21.53;43.03;101809.78;5085175;28;20101;-46
2022/05/13 08:04:01;;;;;;;1.38;0.50;;;;;;;21.51;42.93;101799.13;5099161;28;20036;-43
2022/05/13 08:06:26;;;;;;;0.80;0.47;;;;;;;21.52;43.19;101808.09;5106084;28;20024;-47
2022/05/13 08:08:58;;;;;;;0.73;0.38;;;;;;;21.52;42.88;101810.78;5105288;28;20055;-47
2022/05/13 08:11:24;;;;;;;0.65;0.45;;;;;;;21.51;42.97;101807.25;5106052;28;20036;-45
2022/05/13 08:13:50;;;;;;;1.00;0.40;;;;;;;21.52;42.83;101810.78;5105360;28;20034;-44
2022/05/13 08:16:18;;;;;;;0.85;0.50;;;;;;;21.54;42.99;101819.59;5105144;28;20095;-46
2022/05/13 08:18:46;;;;;;;0.90;0.57;;;;;;;21.54;42.81;101819.59;5104084;28;20054;-46
2022/05/13 08:21:12;;;;;;;0.57;0.40;;;;;;;21.54;42.79;101822.31;5105969;28;20028;-46
2022/05/13 08:23:37;;;;;;;1.02;0.47;;;;;;;21.54;42.76;101822.31;5105189;28;20028;-47
2022/05/13 08:26:04;;;;;;;1.77;0.60;;;;;;;21.56;42.54;101809.44;5086104;28;20039;-44
2022/05/13 08:28:29;;;;;;;0.52;0.50;;;;;;;21.56;42.75;101817.56;5085140;28;20028;-48
2022/05/13 08:30:55;;;;;;;0.30;0.30;;;;;;;21.58;42.86;101823.66;5084612;28;20031;-45
2022/05/13 08:33:20;;;;;;;0.68;0.40;;;;;;;21.54;42.69;101825.03;5084936;28;20121;-44
2022/05/13 08:35:50;;;;;;;0.80;0.40;;;;;;;21.57;42.50;101830.09;5085145;28;20024;-45
2022/05/13 08:38:24;;;;;;;1.38;0.50;;;;;;;21.56;42.63;101823.81;5084908;28;20508;-44
2022/05/13 08:40:50;;;;;;;0.63;0.55;;;;;;;21.56;42.69;101831.94;5084981;28;20029;-45
2022/05/13 08:43:36;;;;;;;0.77;0.35;;;;;;;21.58;42.86;101829.06;5083997;28;20096;-46
2022/05/13 08:46:07;;;;;;;0.80;0.50;;;;;;;21.57;42.81;101832.78;5064076;28;20024;-45
2022/05/13 08:48:35;;;;;;;0.90;0.47;;;;;;;21.56;42.87;101841.94;5064394;28;20381;-46
2022/05/13 08:51:14;;;;;;;1.00;0.52;;;;;;;21.56;42.75;101842.78;5063676;28;20052;-46
2022/05/13 08:53:52;;;;;;;0.52;0.40;;;;;;;21.56;42.83;101839.22;5064016;28;20064;-44
2022/05/13 08:56:27;;;;;;;1.02;0.55;;;;;;;21.56;42.44;101834.66;5082034;28;20051;-44
2022/05/13 08:59:00;;;;;;;0.75;0.38;;;;;;;21.57;42.76;101843.59;5084619;28;20021;-45
2022/05/13 09:01:32;;;;;;;1.38;0.68;;;;;;;21.57;42.59;101840.91;5082783;28;20035;-44
2022/05/13 09:04:03;;;;;;;1.00;0.60;;;;;;;21.58;42.88;101851.59;5097156;28;20126;-47
2022/05/13 09:06:37;;;;;;;0.90;0.65;;;;;;;21.58;42.79;101840.75;5105016;28;20039;-44
2022/05/13 09:09:05;;;;;;;0.77;0.40;;;;;;;21.59;42.87;101847.03;5102726;28;20612;-45
2022/05/13 09:11:33;;;;;;;0.50;0.30;;;;;;;21.58;42.44;101848.88;5104175;28;20062;-42
2022/05/13 09:14:09;;;;;;;0.88;0.32;;;;;;;21.58;42.75;101853.41;5103105;28;20456;-46
2022/05/13 09:16:41;;;;;;;0.77;0.45;;;;;;;21.59;42.85;101845.16;5102853;28;20028;-47
2022/05/13 09:19:14;;;;;;;1.05;0.60;;;;;;;21.58;42.61;101843.47;5104354;28;20039;-44
2022/05/13 09:21:43;;;;;;;0.47;0.40;;;;;;;21.59;42.79;101855.97;5104821;28;20290;-45
2022/05/13 09:24:08;;;;;;;1.60;0.70;;;;;;;21.59;42.67;101855.13;5098428;28;20070;-45
2022/05/13 09:26:34;;;;;;;1.02;0.57;;;;;;;21.57;42.49;101847.16;5084098;28;20040;-45
2022/05/13 09:29:10;;;;;;;1.00;0.43;;;;;;;21.60;42.65;101859.53;5083741;28;20032;-47
2022/05/13 09:31:56;;;;;;;0.60;0.50;;;;;;;21.58;42.66;101859.69;5082401;28;20031;-46
2022/05/13 09:34:25;;;;;;;1.52;0.40;;;;;;;21.58;42.62;101859.69;5084098;28;20036;-45
2022/05/13 09:36:50;;;;;;;1.00;0.45;;;;;;;21.58;42.49;101854.28;5083973;28;20028;-43
2022/05/13 09:39:25;;;;;;;1.38;0.40;;;;;;;21.59;42.56;101853.28;5083469;28;20090;-44
2022/05/13 09:41:52;;;;;;;0.52;0.32;;;;;;;21.53;42.43;101844.94;5083778;28;20032;-44
2022/05/13 09:44:23;;;;;;;0.70;0.30;;;;;;;21.56;42.37;101848.19;5073306;28;20392;-45
2022/05/13 09:46:50;;;;;;;1.15;0.52;;;;;;;21.60;42.47;101854.97;5073966;28;20072;-44
2022/05/13 09:49:24;;;;;;;1.05;0.40;;;;;;;21.62;42.63;101847.53;5061831;28;20037;-47
2022/05/13 09:52:06;;;;;;;0.47;0.30;;;;;;;21.63;42.35;101851.94;5063929;28;20024;-44
2022/05/13 09:54:34;;;;;;;0.63;0.50;;;;;;;21.62;42.36;101850.25;5071041;28;20088;-46
2022/05/13 09:57:11;;;;;;;1.35;0.40;;;;;;;21.64;42.31;101856.34;5083467;28;20051;-45
2022/05/13 09:59:40;;;;;;;0.65;0.40;;;;;;;21.64;42.70;101855.50;5083156;28;20104;-45
2022/05/13 10:02:24;;;;;;;1.40;0.80;;;;;;;21.66;42.63;101853.44;5083219;28;20024;-46
2022/05/13 10:04:55;;;;;;;0.40;0.35;;;;;;;21.61;42.30;101847.69;5063396;28;20040;-45
2022/05/13 10:07:23;;;;;;;0.90;0.40;;;;;;;21.65;42.25;101859.88;5076874;28;20032;-44
2022/05/13 10:15:25;;;;;;;0.60;0.40;;;;;;;21.64;42.33;101860.91;5079174;28;20108;-47
2022/05/13 10:17:53;;;;;;;0.30;0.30;;;;;;;21.64;42.69;101861.75;5078920;28;20517;-45
2022/05/13 10:20:25;;;;;;;0.33;0.33;;;;;;;21.66;42.24;101862.44;5082134;28;20024;-45
2022/05/13 10:22:56;;;;;;;0.98;0.50;;;;;;;21.65;42.55;101860.72;5080861;28;20027;-45
2022/05/13 10:25:25;;;;;;;2.30;0.77;;;;;;;21.65;42.32;101859.88;5076943;28;20100;-44
2022/05/13 10:28:01;;;;;;;1.02;0.52;;;;;;;21.64;42.54;101858.19;5083401;28;20029;-46
2022/05/13 10:30:45;;;;;;;1.00;0.55;;;;;;;21.64;42.46;101861.75;5083557;28;20046;-46
2022/05/13 10:33:19;;;;;;;0.55;0.30;;;;;;;21.66;42.33;101866.97;5086167;28;20029;-48
2022/05/13 10:35:56;;;;;;;1.00;0.43;;;;;;;21.64;42.40;101872.56;5086016;28;20028;-46
2022/05/13 10:38:44;;;;;;;0.82;0.50;;;;;;;21.64;42.51;101874.44;5086066;28;20012;-50
2022/05/13 10:41:30;;;;;;;0.77;0.50;;;;;;;21.63;42.28;101879.00;5085680;28;20074;-47
2022/05/13 10:44:04;;;;;;;0.63;0.52;;;;;;;21.63;42.31;101881.72;5067805;28;20024;-46
2022/05/13 10:46:35;;;;;;;0.75;0.40;;;;;;;21.64;42.47;101882.56;5079567;28;20401;-49
2022/05/13 10:49:00;;;;;;;0.50;0.40;;;;;;;21.63;42.50;101892.53;5068594;28;20052;-48
2022/05/13 10:51:32;;;;;;;0.45;0.40;;;;;;;21.65;42.45;101892.34;5086689;28;20020;-46
2022/05/13 10:54:16;;;;;;;0.73;0.30;;;;;;;21.64;42.76;101888.81;5076583;28;20036;-47
2022/05/13 10:56:53;;;;;;;0.45;0.30;;;;;;;21.66;42.87;101894.03;5077600;28;20028;-50
2022/05/13 10:59:25;;;;;;;0.63;0.32;;;;;;;21.64;42.56;101894.22;5077084;28;20070;-51
2022/05/13 11:02:22;;;;;;;0.57;0.30;;;;;;;21.64;42.57;101888.81;5084889;28;20024;-48
2022/05/13 11:04:54;;;;;;;0.93;0.43;;;;;;;21.64;42.53;101888.81;5066755;28;20028;-50
2022/05/13 11:07:28;;;;;;;0.82;0.35;;;;;;;21.64;42.75;101899.63;5076251;28;20046;-48
2022/05/13 11:10:00;;;;;;;0.73;0.30;;;;;;;21.64;42.97;101894.22;5084708;28;20036;-47
2022/05/13 11:12:57;;;;;;;0.77;0.45;;;;;;;21.64;42.94;101896.94;5085025;28;20110;-45
2022/05/13 11:15:33;;;;;;;0.85;0.40;;;;;;;21.63;42.94;101894.41;5085607;28;20052;-45
2022/05/13 11:18:14;;;;;;;0.63;0.40;;;;;;;21.63;42.88;101894.41;5086581;28;20027;-48
2022/05/13 11:20:51;;;;;;;0.93;0.35;;;;;;;21.62;42.67;101885.44;5082123;28;20024;-44
2022/05/13 11:23:19;;;;;;;0.85;0.38;;;;;;;21.61;42.89;101885.56;5080433;28;20025;-44
2022/05/13 11:26:06;;;;;;;1.30;0.60;;;;;;;21.63;43.00;101887.13;5081782;28;20033;-46
2022/05/13 11:29:00;;;;;;;0.77;0.40;;;;;;;21.64;42.85;101874.44;5086248;28;20285;-45
2022/05/13 11:31:36;;;;;;;1.45;0.70;;;;;;;21.63;42.89;101883.56;5083431;28;20115;-44
2022/05/13 11:34:05;;;;;;;0.47;0.40;;;;;;;21.65;42.72;101879.66;5085927;28;20028;-44
2022/05/13 11:36:48;;;;;;;0.93;0.43;;;;;;;21.66;42.83;101894.03;5086093;28;20405;-43
2022/05/13 11:39:13;;;;;;;1.45;0.40;;;;;;;21.64;42.91;101891.50;5085774;28;20020;-46
2022/05/13 11:41:58;;;;;;;0.60;0.40;;;;;;;21.66;43.12;101894.94;5085655;28;20050;-45
2022/05/13 11:44:37;;;;;;;1.40;0.52;;;;;;;21.66;43.22;101891.34;5082343;28;20028;-44
2022/05/13 11:47:38;;;;;;;0.32;0.32;;;;;;;21.63;43.22;101895.25;5064149;28;20411;-44
2022/05/13 11:50:03;;;;;;;1.75;0.57;;;;;;;21.63;43.03;101891.69;5057946;28;20047;-45
2022/05/13 11:52:34;;;;;;;1.20;0.57;;;;;;;21.63;42.90;101892.53;5083432;28;20549;-47
2022/05/13 11:55:37;;;;;;;0.30;0.30;;;;;;;21.64;42.91;101896.09;5078084;28;20096;-46